SOHO CELIAS Proton Monitor
Solar Wind Parameters for Carrington Rotation 2025 (hour averages)


Listed Parameters:

Measurement time (Year, Month, Day of Month, Day of Year, Hour, Minute, Second)
Proton speed [km/sec]
Proton density [protons per cubic centimeter]
Most probable proton thermal speed [km/sec]
Arrival direction [degrees from north-south, with + meaning FROM the south).
(SPEED=-1 means NOT AVAILABLE)

SOHO spacecraft coordinates: based on SOHO PRE orbit files
GSE X, Y, Z [Earth Radii] 1 RE == 6378 km
Heliocentric Range [106 km],
Heliographic Latitude and Longitude [deg].

FORMAT=(1X,I2,1X,I3,1X,I2,1X,I2,1X,I2,F7.1,3F7.2,3X,3F7.1,F7.1,F7.2,F8.2)



                              CELIAS/MTOF/PM DATA                      SOHO ORBIT DATA              
 InSitu_Start__Time       [km/s]  [cm-3] [km/s]  [deg]      [Re]   [Re]   [Re]  [Mkm]  [deg]  [deg]
 YY MON DY DOY:HH:MM:SS   SPEED     Np     Vth    N/S      GSE_X  GSE_Y  GSE_Z  RANGE  HGLAT  HGLONG
 05 JAN  2   2:01:00:00     562    4.4      46   -2.9      194.1   45.9   14.5  145.9   -3.1   360.0
 05 JAN  2   2:02:00:00     618    6.4      58   -3.2      194.1   46.0   14.5  145.9   -3.1   359.5
 05 JAN  2   2:03:00:00     694    4.4      66   -2.9      194.1   46.2   14.5  145.9   -3.1   358.9
 05 JAN  2   2:04:00:00     707    4.0      63   -2.1      194.1   46.3   14.5  145.9   -3.1   358.4
 05 JAN  2   2:05:00:00     831    4.2      64   -6.3      194.1   46.4   14.4  145.9   -3.1   357.8
 05 JAN  2   2:06:00:00     802    3.7      60   -3.9      194.1   46.6   14.4  145.9   -3.1   357.3
 05 JAN  2   2:07:00:00     791    3.1      58   -1.9      194.2   46.7   14.4  145.9   -3.2   356.7
 05 JAN  2   2:08:00:00     823    3.4      57   -4.0      194.2   46.9   14.4  145.9   -3.2   356.2
 05 JAN  2   2:09:00:00     848    2.7      56   -4.2      194.2   47.0   14.4  145.9   -3.2   355.6
 05 JAN  2   2:10:00:00     855    2.1      56   -0.5      194.2   47.2   14.4  145.9   -3.2   355.1
 05 JAN  2   2:11:00:00     851    2.3      56   -1.6      194.2   47.3   14.4  145.9   -3.2   354.5
 05 JAN  2   2:12:00:00     828    2.0      55   -0.6      194.2   47.4   14.3  145.9   -3.2   354.0
 05 JAN  2   2:13:00:00     800    2.4      53   -3.6      194.2   47.6   14.3  145.9   -3.2   353.4
 05 JAN  2   2:14:00:00     815    2.6      54   -5.0      194.3   47.7   14.3  145.9   -3.2   352.9
 05 JAN  2   2:15:00:00     786    2.4      56   -2.5      194.3   47.9   14.3  145.9   -3.2   352.3
 05 JAN  2   2:16:00:00     795    2.2      54   -0.5      194.3   48.0   14.3  145.9   -3.2   351.8
 05 JAN  2   2:17:00:00     772    2.0      51   -1.7      194.3   48.2   14.3  145.9   -3.2   351.2
 05 JAN  2   2:18:00:00     805    1.8      53    0.7      194.3   48.3   14.2  145.9   -3.2   350.7
 05 JAN  2   2:19:00:00     771    2.8      53   -5.2      194.3   48.4   14.2  145.9   -3.2   350.1
 05 JAN  2   2:20:00:00     790    3.2      58   -3.1      194.4   48.6   14.2  145.9   -3.2   349.6
 05 JAN  2   2:21:00:00     728    5.5      60    0.8      194.4   48.7   14.2  145.9   -3.2   349.0
 05 JAN  2   2:22:00:00     761    5.1      58   -1.7      194.4   48.9   14.2  145.9   -3.2   348.5
 05 JAN  2   2:23:00:00     705    4.2      58   -1.2      194.4   49.0   14.2  145.9   -3.2   347.9
 05 JAN  3   3:00:00:00     645    5.2      56    1.6      194.4   49.1   14.1  145.9   -3.2   347.4
 05 JAN  3   3:01:00:00     631    5.3      55    1.6      194.5   49.3   14.1  145.9   -3.2   346.8
 05 JAN  3   3:02:00:00     594    4.0      51   -0.1      194.5   49.4   14.1  145.9   -3.2   346.3
 05 JAN  3   3:03:00:00     582    4.9      45   -0.3      194.5   49.6   14.1  145.9   -3.2   345.7
 05 JAN  3   3:04:00:00     587    4.8      46    0.4      194.5   49.7   14.1  145.9   -3.3   345.2
 05 JAN  3   3:05:00:00     593    4.9      48    0.9      194.5   49.8   14.1  145.9   -3.3   344.6
 05 JAN  3   3:06:00:00     595    5.5      48    2.6      194.5   50.0   14.0  145.9   -3.3   344.1
 05 JAN  3   3:07:00:00     598    5.0      49    1.2      194.6   50.1   14.0  145.9   -3.3   343.5
 05 JAN  3   3:08:00:00     618    3.8      53   -0.4      194.6   50.3   14.0  145.9   -3.3   343.0
 05 JAN  3   3:09:00:00     627    3.2      54   -2.0      194.6   50.4   14.0  145.9   -3.3   342.4
 05 JAN  3   3:10:00:00     602    3.5      50   -2.0      194.6   50.5   14.0  145.9   -3.3   341.9
 05 JAN  3   3:11:00:00     618    3.0      51    1.0      194.6   50.7   14.0  145.9   -3.3   341.3
 05 JAN  3   3:12:00:00     641    2.5      53    0.6      194.7   50.8   13.9  145.9   -3.3   340.8
 05 JAN  3   3:13:00:00     630    2.7      52    1.5      194.7   51.0   13.9  145.9   -3.3   340.2
 05 JAN  3   3:14:00:00     621    2.2      51    0.2      194.7   51.1   13.9  145.9   -3.3   339.7
 05 JAN  3   3:15:00:00     641    2.1      52    0.7      194.7   51.3   13.9  145.9   -3.3   339.1
 05 JAN  3   3:16:00:00     634    3.0      52   -1.2      194.7   51.4   13.9  145.9   -3.3   338.6
 05 JAN  3   3:17:00:00     637    3.6      54   -1.2      194.7   51.5   13.9  145.9   -3.3   338.0
 05 JAN  3   3:18:00:00     653    3.6      55    0.2      194.8   51.7   13.8  145.9   -3.3   337.5
 05 JAN  3   3:19:00:00     666    2.9      57    0.3      194.8   51.8   13.8  145.9   -3.3   336.9
 05 JAN  3   3:20:00:00     632    3.2      54   -1.1      194.8   52.0   13.8  145.9   -3.3   336.4
 05 JAN  3   3:21:00:00     639    3.0      54   -0.9      194.8   52.1   13.8  145.9   -3.3   335.8
 05 JAN  3   3:22:00:00     672    3.7      59   -0.3      194.8   52.2   13.8  145.9   -3.3   335.3
 05 JAN  3   3:23:00:00     672    3.6      59   -1.1      194.8   52.4   13.8  145.9   -3.3   334.7
 05 JAN  4   4:00:00:00     668    3.6      58    1.4      194.9   52.5   13.7  145.9   -3.3   334.1
 05 JAN  4   4:01:00:00     663    2.7      55   -1.7      194.9   52.7   13.7  145.9   -3.4   333.6
 05 JAN  4   4:02:00:00     702    2.6      53   -2.3      194.9   52.8   13.7  145.9   -3.4   333.0
 05 JAN  4   4:03:00:00     657    2.8      56   -2.5      194.9   52.9   13.7  145.9   -3.4   332.5
 05 JAN  4   4:04:00:00     657    2.8      57    0.7      194.9   53.1   13.7  145.9   -3.4   331.9
 05 JAN  4   4:05:00:00     718    3.1      58    1.0      195.0   53.2   13.7  145.9   -3.4   331.4
 05 JAN  4   4:06:00:00     741    3.1      57   -3.1      195.0   53.3   13.6  145.9   -3.4   330.8
 05 JAN  4   4:07:00:00     764    2.9      53   -0.4      195.0   53.5   13.6  145.9   -3.4   330.3
 05 JAN  4   4:08:00:00     771    2.9      54   -0.6      195.0   53.6   13.6  145.9   -3.4   329.7
 05 JAN  4   4:09:00:00     769    3.1      53   -2.0      195.0   53.8   13.6  145.9   -3.4   329.2
 05 JAN  4   4:10:00:00     768    3.0      51   -1.6      195.0   53.9   13.6  145.9   -3.4   328.6
 05 JAN  4   4:11:00:00     777    3.1      52   -1.0      195.1   54.0   13.5  145.9   -3.4   328.1
 05 JAN  4   4:12:00:00     774    3.2      51    0.1      195.1   54.2   13.5  145.9   -3.4   327.5
 05 JAN  4   4:13:00:00     771    3.3      49   -2.6      195.1   54.3   13.5  145.9   -3.4   327.0
 05 JAN  4   4:14:00:00     772    3.0      49   -2.0      195.1   54.5   13.5  145.9   -3.4   326.4
 05 JAN  4   4:15:00:00     769    2.9      49   -1.2      195.1   54.6   13.5  145.9   -3.4   325.9
 05 JAN  4   4:16:00:00     767    3.0      49    1.0      195.2   54.7   13.5  145.9   -3.4   325.3
 05 JAN  4   4:17:00:00     763    2.5      49    0.2      195.2   54.9   13.4  145.9   -3.4   324.8
 05 JAN  4   4:18:00:00     764    2.5      50    0.3      195.2   55.0   13.4  145.9   -3.4   324.2
 05 JAN  4   4:19:00:00     758    2.4      49   -0.3      195.2   55.1   13.4  145.9   -3.4   323.7
 05 JAN  4   4:20:00:00     761    2.6      48    1.7      195.2   55.3   13.4  145.9   -3.4   323.1
 05 JAN  4   4:21:00:00     757    2.5      49    2.0      195.3   55.4   13.4  145.9   -3.4   322.6
 05 JAN  4   4:22:00:00     753    2.3      46    0.5      195.3   55.6   13.4  145.9   -3.5   322.0
 05 JAN  4   4:23:00:00     756    2.7      44    1.2      195.3   55.7   13.3  145.9   -3.5   321.5
 05 JAN  5   5:00:00:00     746    2.1      54   -1.1      195.3   55.8   13.3  145.9   -3.5   320.9
 05 JAN  5   5:01:00:00     740    1.9      58   -1.5      195.3   56.0   13.3  145.9   -3.5   320.4
 05 JAN  5   5:02:00:00     735    1.9      60   -1.5      195.4   56.1   13.3  145.9   -3.5   319.8
 05 JAN  5   5:03:00:00     754    2.2      57   -1.1      195.4   56.2   13.3  145.9   -3.5   319.3
 05 JAN  5   5:04:00:00     751    2.3      56   -1.5      195.4   56.4   13.2  145.9   -3.5   318.7
 05 JAN  5   5:05:00:00     729    1.9      56   -1.0      195.4   56.5   13.2  145.9   -3.5   318.2
 05 JAN  5   5:06:00:00     708    1.9      58    0.0      195.4   56.7   13.2  145.9   -3.5   317.6
 05 JAN  5   5:07:00:00     748    2.4      54   -3.1      195.4   56.8   13.2  145.9   -3.5   317.1
 05 JAN  5   5:08:00:00     713    2.2      57   -0.2      195.5   56.9   13.2  145.9   -3.5   316.5
 05 JAN  5   5:09:00:00     689    2.1      60   -1.3      195.5   57.1   13.1  145.9   -3.5   316.0
 05 JAN  5   5:10:00:00     711    2.0      58   -1.3      195.5   57.2   13.1  145.9   -3.5   315.4
 05 JAN  5   5:11:00:00     743    2.2      57    0.1      195.5   57.3   13.1  145.9   -3.5   314.9
 05 JAN  5   5:12:00:00     718    1.9      58   -0.5      195.5   57.5   13.1  145.9   -3.5   314.3
 05 JAN  5   5:13:00:00     703    1.9      59   -1.5      195.6   57.6   13.1  145.9   -3.5   313.8
 05 JAN  5   5:14:00:00     700    2.0      60   -0.8      195.6   57.7   13.1  145.9   -3.5   313.2
 05 JAN  5   5:15:00:00     671    2.0      60   -0.8      195.6   57.9   13.0  145.9   -3.5   312.7
 05 JAN  5   5:16:00:00     607    2.5      50   -1.1      195.6   58.0   13.0  145.9   -3.5   312.1
 05 JAN  5   5:17:00:00     612    2.6      50   -1.4      195.6   58.2   13.0  145.9   -3.5   311.6
 05 JAN  5   5:18:00:00     584    2.6      44   -0.3      195.7   58.3   13.0  145.9   -3.5   311.0
 05 JAN  5   5:19:00:00     578    3.1      41    0.0      195.7   58.4   13.0  145.9   -3.5   310.5
 05 JAN  5   5:20:00:00     578    2.6      40   -0.2      195.7   58.6   12.9  145.9   -3.6   309.9
 05 JAN  5   5:21:00:00     590    2.1      44   -1.3      195.7   58.7   12.9  145.9   -3.6   309.4
 05 JAN  5   5:22:00:00     566    2.8      35   -2.4      195.7   58.8   12.9  145.9   -3.6   308.8
 05 JAN  5   5:23:00:00     566    2.7      36   -1.8      195.8   59.0   12.9  145.9   -3.6   308.3
 05 JAN  6   6:00:00:00     563    2.5      34   -1.3      195.8   59.1   12.9  145.9   -3.6   307.7
 05 JAN  6   6:01:00:00     567    2.3      35   -1.7      195.8   59.2   12.8  145.9   -3.6   307.2
 05 JAN  6   6:02:00:00     560    1.9      34   -3.2      195.8   59.4   12.8  145.9   -3.6   306.6
 05 JAN  6   6:03:00:00     559    2.0      33   -1.7      195.8   59.5   12.8  145.9   -3.6   306.1
 05 JAN  6   6:04:00:00     552    2.8      28   -1.9      195.9   59.6   12.8  145.9   -3.6   305.5
 05 JAN  6   6:05:00:00     552    1.8      29   -2.4      195.9   59.8   12.8  145.9   -3.6   305.0
 05 JAN  6   6:06:00:00     554    1.5      31   -3.3      195.9   59.9   12.7  145.9   -3.6   304.4
 05 JAN  6   6:07:00:00     553    1.6      30   -1.9      195.9   60.0   12.7  145.9   -3.6   303.9
 05 JAN  6   6:08:00:00     555    1.5      31   -1.8      195.9   60.2   12.7  145.9   -3.6   303.3
 05 JAN  6   6:09:00:00     569    1.2      41   -1.8      196.0   60.3   12.7  145.9   -3.6   302.8
 05 JAN  6   6:10:00:00     566    0.9      41   -2.3      196.0   60.4   12.7  145.9   -3.6   302.2
 05 JAN  6   6:11:00:00     562    1.2      39   -1.5      196.0   60.6   12.7  145.9   -3.6   301.7
 05 JAN  6   6:12:00:00     555    1.5      40   -1.1      196.0   60.7   12.6  145.9   -3.6   301.1
 05 JAN  6   6:13:00:00     556    1.3      40   -0.6      196.1   60.8   12.6  145.9   -3.6   300.6
 05 JAN  6   6:14:00:00     558    1.9      39   -1.9      196.1   61.0   12.6  145.9   -3.6   300.0
 05 JAN  6   6:15:00:00     551    1.6      45   -2.4      196.1   61.1   12.6  145.9   -3.6   299.5
 05 JAN  6   6:16:00:00     551    1.8      46   -1.6      196.1   61.2   12.6  145.9   -3.6   298.9
 05 JAN  6   6:17:00:00     558    2.2      44   -1.4      196.1   61.4   12.5  145.9   -3.7   298.4
 05 JAN  6   6:18:00:00     553    2.1      44   -3.0      196.2   61.5   12.5  145.9   -3.7   297.8
 05 JAN  6   6:19:00:00     538    2.5      45   -0.9      196.2   61.6   12.5  145.9   -3.7   297.3
 05 JAN  6   6:20:00:00     507    3.0      43   -2.1      196.2   61.8   12.5  145.9   -3.7   296.7
 05 JAN  6   6:21:00:00     507    3.0      42    0.6      196.2   61.9   12.5  145.9   -3.7   296.2
 05 JAN  6   6:22:00:00     512    2.6      42    0.3      196.2   62.0   12.4  145.9   -3.7   295.6
 05 JAN  6   6:23:00:00     494    2.0      38   -0.3      196.3   62.2   12.4  145.9   -3.7   295.1
 05 JAN  7   7:00:00:00     498    1.6      38   -0.3      196.3   62.3   12.4  145.9   -3.7   294.5
 05 JAN  7   7:01:00:00     489    1.5      37   -0.9      196.3   62.4   12.4  145.9   -3.7   294.0
 05 JAN  7   7:02:00:00     483    1.6      36   -0.8      196.3   62.6   12.4  145.9   -3.7   293.4
 05 JAN  7   7:03:00:00     487    1.5      37   -1.0      196.3   62.7   12.3  145.9   -3.7   292.9
 05 JAN  7   7:04:00:00     509    1.3      41   -0.4      196.4   62.8   12.3  145.9   -3.7   292.3
 05 JAN  7   7:05:00:00     517    1.1      44    0.0      196.4   63.0   12.3  145.9   -3.7   291.8
 05 JAN  7   7:06:00:00     529    1.1      45   -1.1      196.4   63.1   12.3  145.9   -3.7   291.2
 05 JAN  7   7:07:00:00     512    1.6      43    0.0      196.4   63.2   12.3  145.9   -3.7   290.7
 05 JAN  7   7:08:00:00     525    1.9      43   -0.6      196.4   63.4   12.2  145.9   -3.7   290.1
 05 JAN  7   7:09:00:00     552    4.0      43    0.0      196.5   63.5   12.2  145.9   -3.7   289.6
 05 JAN  7   7:10:00:00     566    5.8      42   -1.5      196.5   63.6   12.2  145.9   -3.7   289.0
 05 JAN  7   7:11:00:00     555    4.7      47    1.5      196.5   63.8   12.2  145.9   -3.7   288.5
 05 JAN  7   7:12:00:00     548    5.4      46    0.4      196.5   63.9   12.2  145.9   -3.7   287.9
 05 JAN  7   7:13:00:00     541    5.6      46   -2.4      196.5   64.0   12.1  145.9   -3.7   287.4
 05 JAN  7   7:14:00:00     554    7.1      44   -2.2      196.6   64.1   12.1  145.9   -3.7   286.8
 05 JAN  7   7:15:00:00     582    5.8      47   -2.3      196.6   64.3   12.1  145.9   -3.8   286.3
 05 JAN  7   7:16:00:00     654    5.3      57   -2.3      196.6   64.4   12.1  145.9   -3.8   285.7
 05 JAN  7   7:17:00:00     628    3.6      58   -3.5      196.6   64.5   12.0  145.9   -3.8   285.2
 05 JAN  7   7:18:00:00     608    2.6      58   -3.2      196.7   64.7   12.0  145.9   -3.8   284.6
 05 JAN  7   7:19:00:00     579    3.8      54   -5.2      196.7   64.8   12.0  145.9   -3.8   284.1
 05 JAN  7   7:20:00:00     622    5.0      57   -3.1      196.7   64.9   12.0  145.9   -3.8   283.5
 05 JAN  7   7:21:00:00     645    6.8      54    1.0      196.7   65.1   12.0  145.9   -3.8   283.0
 05 JAN  7   7:22:00:00     635    8.7      55    0.1      196.7   65.2   11.9  145.9   -3.8   282.4
 05 JAN  7   7:23:00:00     656    9.5      58   -1.3      196.8   65.3   11.9  145.9   -3.8   281.9
 05 JAN  8   8:00:00:00     620    8.4      51   -2.0      196.8   65.4   11.9  145.9   -3.8   281.3
 05 JAN  8   8:01:00:00     560    7.1      35    1.6      196.8   65.6   11.9  145.9   -3.8   280.8
 05 JAN  8   8:02:00:00     554    8.4      32    4.2      196.8   65.7   11.9  145.9   -3.8   280.2
 05 JAN  8   8:03:00:00     566    9.4      42    2.2      196.8   65.8   11.8  145.9   -3.8   279.7
 05 JAN  8   8:04:00:00     545   11.4      43    0.0      196.9   66.0   11.8  145.9   -3.8   279.1
 05 JAN  8   8:05:00:00     532    8.6      45    0.5      196.9   66.1   11.8  145.9   -3.8   278.6
 05 JAN  8   8:06:00:00     540    5.8      39    2.5      196.9   66.2   11.8  145.9   -3.8   278.0
 05 JAN  8   8:07:00:00     553    8.5      48   -3.2      196.9   66.3   11.8  145.9   -3.8   277.5
 05 JAN  8   8:08:00:00     518   17.8      45   -6.8      196.9   66.5   11.7  145.9   -3.8   276.9
 05 JAN  8   8:09:00:00     514   14.3      43   -7.3      197.0   66.6   11.7  145.9   -3.8   276.4
 05 JAN  8   8:10:00:00     482   11.3      36   -5.3      197.0   66.7   11.7  145.9   -3.8   275.8
 05 JAN  8   8:11:00:00     503    7.3      41    0.6      197.0   66.9   11.7  145.9   -3.8   275.3
 05 JAN  8   8:12:00:00     467    5.5      31   -0.6      197.0   67.0   11.7  145.9   -3.8   274.7
 05 JAN  8   8:13:00:00     462    5.0      31   -0.6      197.1   67.1   11.6  145.9   -3.9   274.1
 05 JAN  8   8:14:00:00     469    4.3      33   -1.0      197.1   67.2   11.6  145.9   -3.9   273.6
 05 JAN  8   8:15:00:00     513    3.4      39   -2.2      197.1   67.4   11.6  145.9   -3.9   273.0
 05 JAN  8   8:16:00:00     529    3.3      38   -3.6      197.1   67.5   11.6  145.9   -3.9   272.5
 05 JAN  8   8:17:00:00     543    2.5      40   -2.6      197.1   67.6   11.5  145.9   -3.9   271.9
 05 JAN  8   8:18:00:00     541    2.5      40   -3.2      197.2   67.7   11.5  145.9   -3.9   271.4
 05 JAN  8   8:19:00:00     513    2.4      41   -2.6      197.2   67.9   11.5  145.9   -3.9   270.8
 05 JAN  8   8:20:00:00     493    1.8      44   -1.4      197.2   68.0   11.5  145.9   -3.9   270.3
 05 JAN  8   8:21:00:00     477    2.8      36    0.2      197.2   68.1   11.5  145.9   -3.9   269.7
 05 JAN  8   8:22:00:00     451    4.3      24   -0.4      197.2   68.3   11.4  145.9   -3.9   269.2
 05 JAN  8   8:23:00:00     450    3.9      24   -0.4      197.3   68.4   11.4  145.9   -3.9   268.6
 05 JAN  9   9:00:00:00     447    4.6      22   -0.2      197.3   68.5   11.4  145.9   -3.9   268.1
 05 JAN  9   9:01:00:00     449    3.6      22    0.2      197.3   68.6   11.4  145.9   -3.9   267.5
 05 JAN  9   9:02:00:00     446    3.8      17   -1.0      197.3   68.8   11.4  145.9   -3.9   267.0
 05 JAN  9   9:03:00:00     446    3.6      16   -0.9      197.3   68.9   11.3  145.9   -3.9   266.4
 05 JAN  9   9:04:00:00     446    4.1      16   -0.9      197.4   69.0   11.3  145.9   -3.9   265.9
 05 JAN  9   9:05:00:00     445    3.5      16   -0.9      197.4   69.1   11.3  145.9   -3.9   265.3
 05 JAN  9   9:06:00:00     445    3.5      13   -1.0      197.4   69.3   11.3  145.9   -3.9   264.8
 05 JAN  9   9:07:00:00     445    4.1      14   -0.5      197.4   69.4   11.2  145.9   -3.9   264.2
 05 JAN  9   9:08:00:00     453    3.0      26    1.0      197.5   69.5   11.2  145.9   -3.9   263.7
 05 JAN  9   9:09:00:00     449    5.1      22    0.2      197.5   69.6   11.2  145.9   -3.9   263.1
 05 JAN  9   9:10:00:00     445    3.4      14   -0.7      197.5   69.8   11.2  145.9   -3.9   262.6
 05 JAN  9   9:11:00:00     446    2.5      17   -1.3      197.5   69.9   11.2  145.9   -4.0   262.0
 05 JAN  9   9:12:00:00     446    2.6      17   -1.6      197.5   70.0   11.1  145.9   -4.0   261.5
 05 JAN  9   9:13:00:00     452    2.2      26   -0.5      197.6   70.1   11.1  145.9   -4.0   260.9
 05 JAN  9   9:14:00:00     456    2.4      28    0.4      197.6   70.2   11.1  145.9   -4.0   260.4
 05 JAN  9   9:15:00:00     454    2.2      28   -1.4      197.6   70.4   11.1  145.9   -4.0   259.8
 05 JAN  9   9:16:00:00     455    2.2      30   -2.4      197.6   70.5   11.0  145.9   -4.0   259.3
 05 JAN  9   9:17:00:00     463    2.2      34   -2.8      197.6   70.6   11.0  145.9   -4.0   258.7
 05 JAN  9   9:18:00:00     476    3.4      38   -0.3      197.7   70.7   11.0  145.9   -4.0   258.2
 05 JAN  9   9:19:00:00     469    3.8      36    1.0      197.7   70.9   11.0  145.9   -4.0   257.6
 05 JAN  9   9:20:00:00     469    3.5      33   -0.5      197.7   71.0   11.0  145.9   -4.0   257.1
 05 JAN  9   9:21:00:00     464    3.1      32   -1.2      197.7   71.1   10.9  145.9   -4.0   256.5
 05 JAN  9   9:22:00:00     468    2.1      38   -1.9      197.7   71.2   10.9  145.9   -4.0   256.0
 05 JAN  9   9:23:00:00     472    2.4      41   -1.7      197.8   71.4   10.9  145.9   -4.0   255.4
 05 JAN 10  10:00:00:00     475    3.3      38   -2.2      197.8   71.5   10.9  145.9   -4.0   254.9
 05 JAN 10  10:01:00:00     466    4.9      34   -3.2      197.8   71.6   10.9  145.9   -4.0   254.3
 05 JAN 10  10:02:00:00     466    5.7      33   -5.1      197.8   71.7   10.8  145.9   -4.0   253.8
 05 JAN 10  10:03:00:00     466    4.7      39   -2.3      197.9   71.8   10.8  145.9   -4.0   253.2
 05 JAN 10  10:04:00:00     461    6.2      36   -3.9      197.9   72.0   10.8  145.9   -4.0   252.7
 05 JAN 10  10:05:00:00     452    3.6      38   -2.3      197.9   72.1   10.8  145.9   -4.0   252.1
 05 JAN 10  10:06:00:00     451    4.1      40   -3.6      197.9   72.2   10.7  145.9   -4.0   251.6
 05 JAN 10  10:07:00:00     443    4.8      39   -4.7      197.9   72.3   10.7  145.9   -4.0   251.0
 05 JAN 10  10:08:00:00     440    4.4      39   -4.2      198.0   72.4   10.7  145.9   -4.0   250.5
 05 JAN 10  10:09:00:00     436    5.5      37   -6.1      198.0   72.6   10.7  145.9   -4.1   249.9
 05 JAN 10  10:10:00:00     417    5.8      36   -4.3      198.0   72.7   10.7  145.9   -4.1   249.4
 05 JAN 10  10:11:00:00     417    5.2      36   -3.0      198.0   72.8   10.6  145.9   -4.1   248.8
 05 JAN 10  10:12:00:00     399    6.6      32   -3.9      198.0   72.9   10.6  145.9   -4.1   248.3
 05 JAN 10  10:13:00:00     379    6.6      26   -3.7      198.1   73.0   10.6  145.9   -4.1   247.7
 05 JAN 10  10:14:00:00     389    6.0      31   -3.1      198.1   73.2   10.6  145.9   -4.1   247.2
 05 JAN 10  10:15:00:00     397    5.0      31   -3.8      198.1   73.3   10.5  145.9   -4.1   246.6
 05 JAN 10  10:16:00:00     409    5.0      29   -4.6      198.1   73.4   10.5  145.9   -4.1   246.1
 05 JAN 10  10:17:00:00     412    5.8      29   -6.1      198.1   73.5   10.5  145.9   -4.1   245.5
 05 JAN 10  10:18:00:00     395    6.6      27   -6.9      198.2   73.6   10.5  145.9   -4.1   245.0
 05 JAN 10  10:19:00:00     381    6.4      25   -4.3      198.2   73.7   10.5  145.9   -4.1   244.4
 05 JAN 10  10:20:00:00     435    6.5      32   -5.2      198.2   73.9   10.4  145.9   -4.1   243.9
 05 JAN 10  10:21:00:00     448    4.6      30   -3.9      198.2   74.0   10.4  145.9   -4.1   243.3
 05 JAN 10  10:22:00:00     455    4.1      30   -2.3      198.3   74.1   10.4  145.9   -4.1   242.8
 05 JAN 10  10:23:00:00     448    4.9      29   -3.8      198.3   74.2   10.4  145.9   -4.1   242.2
 05 JAN 11  11:00:00:00     452    3.2      30   -2.8      198.3   74.3   10.3  145.9   -4.1   241.7
 05 JAN 11  11:01:00:00     451    3.3      28   -2.1      198.3   74.5   10.3  145.9   -4.1   241.1
 05 JAN 11  11:02:00:00     452    3.1      27   -1.3      198.3   74.6   10.3  145.9   -4.1   240.6
 05 JAN 11  11:03:00:00     452    2.8      26    1.2      198.4   74.7   10.3  145.9   -4.1   240.0
 05 JAN 11  11:04:00:00     448    3.5      22    2.3      198.4   74.8   10.2  145.9   -4.1   239.5
 05 JAN 11  11:05:00:00     451    2.8      26   -1.3      198.4   74.9   10.2  145.9   -4.1   238.9
 05 JAN 11  11:06:00:00     448    2.9      24    0.2      198.4   75.0   10.2  145.9   -4.1   238.4
 05 JAN 11  11:07:00:00     447    1.7      22    0.5      198.4   75.2   10.2  145.9   -4.1   237.8
 05 JAN 11  11:08:00:00     447    2.7      25    0.8      198.5   75.3   10.2  145.9   -4.2   237.3
 05 JAN 11  11:09:00:00     452    2.1      27    0.0      198.5   75.4   10.1  145.9   -4.2   236.7
 05 JAN 11  11:10:00:00     453    1.5      28   -0.7      198.5   75.5   10.1  145.9   -4.2   236.2
 05 JAN 11  11:11:00:00     451    2.5      27    2.6      198.5   75.6   10.1  145.9   -4.2   235.6
 05 JAN 11  11:12:00:00     443    2.7      26    2.3      198.6   75.7   10.1  145.9   -4.2   235.1
 05 JAN 11  11:13:00:00     436    2.2      32    1.4      198.6   75.8   10.0  145.9   -4.2   234.5
 05 JAN 11  11:14:00:00     436    2.7      29    2.3      198.6   76.0   10.0  145.9   -4.2   234.0
 05 JAN 11  11:15:00:00     437    3.3      35   -0.9      198.6   76.1   10.0  145.9   -4.2   233.4
 05 JAN 11  11:16:00:00     428    5.2      36   -0.3      198.6   76.2   10.0  145.9   -4.2   232.9
 05 JAN 11  11:17:00:00     406    7.1      33   -1.3      198.7   76.3   10.0  145.9   -4.2   232.3
 05 JAN 11  11:18:00:00     397    9.4      30    0.0      198.7   76.4    9.9  145.9   -4.2   231.8
 05 JAN 11  11:19:00:00     404   12.1      32    0.2      198.7   76.5    9.9  145.9   -4.2   231.2
 05 JAN 11  11:20:00:00     415   14.1      35   -0.2      198.7   76.6    9.9  145.9   -4.2   230.7
 05 JAN 11  11:21:00:00     422   10.0      37   -0.9      198.7   76.8    9.9  145.9   -4.2   230.1
 05 JAN 11  11:22:00:00     410   10.4      35   -0.9      198.8   76.9    9.8  145.9   -4.2   229.6
 05 JAN 11  11:23:00:00     429   14.6      39   -1.9      198.8   77.0    9.8  145.9   -4.2   229.0
 05 JAN 12  12:00:00:00     429   15.8      39    0.0      198.8   77.1    9.8  145.9   -4.2   228.5
 05 JAN 12  12:01:00:00     441   28.0      38    3.3      198.8   77.2    9.8  145.9   -4.2   227.9
 05 JAN 12  12:02:00:00     469   22.3      43    2.0      198.8   77.3    9.7  145.9   -4.2   227.4
 05 JAN 12  12:03:00:00     515   12.8      48    1.1      198.9   77.4    9.7  145.9   -4.2   226.8
 05 JAN 12  12:04:00:00     573   10.1      49    2.9      198.9   77.5    9.7  145.9   -4.2   226.3
 05 JAN 12  12:05:00:00     613    6.6      51    2.5      198.9   77.6    9.7  145.9   -4.2   225.7
 05 JAN 12  12:06:00:00     629    6.7      53    0.7      198.9   77.8    9.7  145.9   -4.3   225.2
 05 JAN 12  12:07:00:00     604    8.5      50    0.9      199.0   77.9    9.6  145.9   -4.3   224.6
 05 JAN 12  12:08:00:00     614    8.2      50    2.2      199.0   78.0    9.6  145.9   -4.3   224.1
 05 JAN 12  12:09:00:00     624    8.3      51   -0.8      199.0   78.1    9.6  145.9   -4.3   223.5
 05 JAN 12  12:10:00:00     626    6.9      51   -0.6      199.0   78.2    9.6  145.9   -4.3   223.0
 05 JAN 12  12:11:00:00     623    5.8      51    0.8      199.0   78.3    9.5  145.9   -4.3   222.4
 05 JAN 12  12:12:00:00     671    5.2      56   -0.3      199.1   78.4    9.5  145.9   -4.3   221.9
 05 JAN 12  12:13:00:00     695    3.5      52    0.7      199.1   78.5    9.5  145.9   -4.3   221.3
 05 JAN 12  12:14:00:00     678    4.0      56   -1.0      199.1   78.6    9.5  145.9   -4.3   220.8
 05 JAN 12  12:15:00:00     714    3.8      56   -0.4      199.1   78.7    9.4  145.9   -4.3   220.2
 05 JAN 12  12:16:00:00     704    3.4      58   -1.5      199.1   78.9    9.4  145.9   -4.3   219.7
 05 JAN 12  12:17:00:00     696    3.1      59   -0.4      199.2   79.0    9.4  145.9   -4.3   219.1
 05 JAN 12  12:18:00:00     681    2.6      58   -0.9      199.2   79.1    9.4  145.9   -4.3   218.6
 05 JAN 12  12:19:00:00     696    2.5      59   -1.3      199.2   79.2    9.3  145.9   -4.3   218.0
 05 JAN 12  12:20:00:00     725    2.6      58    0.2      199.2   79.3    9.3  145.9   -4.3   217.5
 05 JAN 12  12:21:00:00     734    2.9      56   -0.5      199.2   79.4    9.3  145.9   -4.3   216.9
 05 JAN 12  12:22:00:00     734    2.8      55   -1.5      199.3   79.5    9.3  145.9   -4.3   216.4
 05 JAN 12  12:23:00:00     699    2.6      58   -0.6      199.3   79.6    9.3  145.9   -4.3   215.8
 05 JAN 13  13:00:00:00     727    3.0      57   -2.2      199.3   79.7    9.2  145.9   -4.3   215.3
 05 JAN 13  13:01:00:00     746    2.8      56   -0.6      199.3   79.8    9.2  145.9   -4.3   214.7
 05 JAN 13  13:02:00:00     756    2.3      55    0.2      199.4   79.9    9.2  145.9   -4.3   214.2
 05 JAN 13  13:03:00:00     760    2.4      51   -0.9      199.4   80.0    9.2  145.9   -4.3   213.6
 05 JAN 13  13:04:00:00     764    2.7      51    0.1      199.4   80.1    9.1  145.9   -4.3   213.1
 05 JAN 13  13:05:00:00     762    2.6      50   -0.2      199.4   80.2    9.1  145.9   -4.4   212.5
 05 JAN 13  13:06:00:00     763    2.4      51   -1.0      199.4   80.3    9.1  145.9   -4.4   212.0
 05 JAN 13  13:07:00:00     756    2.4      50   -1.4      199.5   80.4    9.1  145.9   -4.4   211.4
 05 JAN 13  13:08:00:00     752    2.0      56    0.0      199.5   80.6    9.0  145.9   -4.4   210.9
 05 JAN 13  13:09:00:00     763    2.0      56   -1.5      199.5   80.7    9.0  145.9   -4.4   210.3
 05 JAN 13  13:10:00:00     773    2.5      54   -0.4      199.5   80.8    9.0  145.9   -4.4   209.8
 05 JAN 13  13:11:00:00     769    2.7      52    0.0      199.5   80.9    9.0  145.9   -4.4   209.2
 05 JAN 13  13:12:00:00     757    2.6      51   -1.2      199.6   81.0    8.9  145.9   -4.4   208.7
 05 JAN 13  13:13:00:00     766    2.6      51   -0.7      199.6   81.1    8.9  145.9   -4.4   208.1
 05 JAN 13  13:14:00:00     767    2.6      50   -0.6      199.6   81.2    8.9  145.9   -4.4   207.6
 05 JAN 13  13:15:00:00     767    2.2      49   -0.8      199.6   81.3    8.9  145.9   -4.4   207.0
 05 JAN 13  13:16:00:00     761    2.4      48   -1.2      199.7   81.4    8.9  145.9   -4.4   206.5
 05 JAN 13  13:17:00:00     760    2.2      50   -0.2      199.7   81.5    8.8  145.9   -4.4   205.9
 05 JAN 13  13:18:00:00     762    1.9      52    0.1      199.7   81.6    8.8  145.9   -4.4   205.4
 05 JAN 13  13:19:00:00     757    1.8      53    0.8      199.7   81.7    8.8  145.9   -4.4   204.8
 05 JAN 13  13:20:00:00     736    1.7      57   -0.9      199.7   81.8    8.8  145.9   -4.4   204.3
 05 JAN 13  13:21:00:00     655    1.9      56    0.6      199.8   81.9    8.7  145.9   -4.4   203.7
 05 JAN 13  13:22:00:00     646    2.4      56    0.5      199.8   82.0    8.7  145.9   -4.4   203.2
 05 JAN 13  13:23:00:00     665    2.5      56   -0.8      199.8   82.1    8.7  145.9   -4.4   202.6
 05 JAN 14  14:00:00:00     677    2.3      57    0.9      199.8   82.2    8.7  145.9   -4.4   202.1
 05 JAN 14  14:01:00:00     701    2.1      57    0.5      199.9   82.3    8.6  145.9   -4.4   201.5
 05 JAN 14  14:02:00:00     652    2.5      56    1.4      199.9   82.4    8.6  145.9   -4.4   201.0
 05 JAN 14  14:03:00:00     650    2.1      55    1.6      199.9   82.5    8.6  145.9   -4.4   200.4
 05 JAN 14  14:04:00:00     646    1.8      55    0.6      199.9   82.6    8.6  145.9   -4.4   199.9
 05 JAN 14  14:05:00:00     639    2.0      55    0.1      199.9   82.7    8.5  145.9   -4.5   199.3
 05 JAN 14  14:06:00:00     608    2.2      51    0.6      200.0   82.8    8.5  145.9   -4.5   198.8
 05 JAN 14  14:07:00:00     591    2.1      48   -0.8      200.0   82.9    8.5  145.9   -4.5   198.2
 05 JAN 14  14:08:00:00     582    1.8      48    0.3      200.0   83.0    8.5  145.9   -4.5   197.7
 05 JAN 14  14:09:00:00     574    1.6      47    0.4      200.0   83.1    8.4  145.9   -4.5   197.1
 05 JAN 14  14:10:00:00     570    1.6      46    0.7      200.0   83.2    8.4  145.9   -4.5   196.5
 05 JAN 14  14:11:00:00     566    1.7      45   -0.4      200.1   83.3    8.4  145.9   -4.5   196.0
 05 JAN 14  14:12:00:00     555    1.9      43   -0.4      200.1   83.4    8.4  145.9   -4.5   195.4
 05 JAN 14  14:13:00:00     551    1.7      44   -0.5      200.1   83.5    8.3  145.9   -4.5   194.9
 05 JAN 14  14:14:00:00     551    2.3      44   -0.6      200.1   83.6    8.3  145.9   -4.5   194.3
 05 JAN 14  14:15:00:00     553    2.6      43   -0.3      200.2   83.7    8.3  145.9   -4.5   193.8
 05 JAN 14  14:16:00:00     552    3.0      41   -1.3      200.2   83.8    8.3  145.9   -4.5   193.2
 05 JAN 14  14:17:00:00     555    3.0      45   -0.9      200.2   83.9    8.3  145.9   -4.5   192.7
 05 JAN 14  14:18:00:00     545    4.0      47   -0.8      200.2   84.0    8.2  145.9   -4.5   192.1
 05 JAN 14  14:19:00:00     545    5.3      46    0.3      200.2   84.1    8.2  145.9   -4.5   191.6
 05 JAN 14  14:20:00:00     564    5.0      46   -1.6      200.3   84.2    8.2  145.9   -4.5   191.0
 05 JAN 14  14:21:00:00     565    4.4      49   -1.4      200.3   84.3    8.2  145.9   -4.5   190.5
 05 JAN 14  14:22:00:00     576    5.1      49   -1.9      200.3   84.3    8.1  145.9   -4.5   189.9
 05 JAN 14  14:23:00:00     603    6.9      51   -2.7      200.3   84.4    8.1  145.9   -4.5   189.4
 05 JAN 15  15:00:00:00     609    8.5      51   -4.7      200.4   84.5    8.1  145.9   -4.5   188.8
 05 JAN 15  15:01:00:00     619    7.1      53   -3.1      200.4   84.6    8.1  145.9   -4.5   188.3
 05 JAN 15  15:02:00:00     631    5.7      53   -2.5      200.4   84.7    8.0  145.9   -4.5   187.7
 05 JAN 15  15:03:00:00     652    4.9      56   -1.7      200.4   84.8    8.0  145.9   -4.5   187.2
 05 JAN 15  15:04:00:00     632    5.6      55   -2.3      200.5   84.9    8.0  145.9   -4.6   186.6
 05 JAN 15  15:05:00:00      -1   -1.0      -1   99.0      200.5   85.0    8.0  145.9   -4.6   186.1
 05 JAN 15  15:06:00:00      -1   -1.0      -1   99.0      200.5   85.1    7.9  145.9   -4.6   185.5
 05 JAN 15  15:07:00:00      -1   -1.0      -1   99.0      200.5   85.2    7.9  145.9   -4.6   185.0
 05 JAN 15  15:08:00:00      -1   -1.0      -1   99.0      200.5   85.3    7.9  145.9   -4.6   184.4
 05 JAN 15  15:09:00:00      -1   -1.0      -1   99.0      200.6   85.4    7.9  145.9   -4.6   183.9
 05 JAN 15  15:10:00:00      -1   -1.0      -1   99.0      200.6   85.5    7.8  145.9   -4.6   183.3
 05 JAN 15  15:11:00:00      -1   -1.0      -1   99.0      200.6   85.6    7.8  145.9   -4.6   182.8
 05 JAN 15  15:12:00:00      -1   -1.0      -1   99.0      200.6   85.7    7.8  145.9   -4.6   182.2
 05 JAN 15  15:13:00:00      -1   -1.0      -1   99.0      200.7   85.7    7.8  145.9   -4.6   181.7
 05 JAN 15  15:14:00:00      -1   -1.0      -1   99.0      200.7   85.8    7.7  145.9   -4.6   181.1
 05 JAN 15  15:15:00:00      -1   -1.0      -1   99.0      200.7   85.9    7.7  145.9   -4.6   180.6
 05 JAN 15  15:16:00:00      -1   -1.0      -1   99.0      200.7   86.0    7.7  145.9   -4.6   180.0
 05 JAN 15  15:17:00:00      -1   -1.0      -1   99.0      200.8   86.1    7.7  145.9   -4.6   179.5
 05 JAN 15  15:18:00:00      -1   -1.0      -1   99.0      200.8   86.2    7.6  145.9   -4.6   178.9
 05 JAN 15  15:19:00:00      -1   -1.0      -1   99.0      200.8   86.3    7.6  145.9   -4.6   178.4
 05 JAN 15  15:20:00:00      -1   -1.0      -1   99.0      200.8   86.4    7.6  145.9   -4.6   177.8
 05 JAN 15  15:21:00:00      -1   -1.0      -1   99.0      200.8   86.5    7.6  145.9   -4.6   177.3
 05 JAN 15  15:22:00:00      -1   -1.0      -1   99.0      200.9   86.6    7.5  145.9   -4.6   176.7
 05 JAN 15  15:23:00:00      -1   -1.0      -1   99.0      200.9   86.6    7.5  145.9   -4.6   176.2
 05 JAN 16  16:00:00:00      -1   -1.0      -1   99.0      200.9   86.7    7.5  145.9   -4.6   175.6
 05 JAN 16  16:01:00:00      -1   -1.0      -1   99.0      200.9   86.8    7.5  145.9   -4.6   175.1
 05 JAN 16  16:02:00:00      -1   -1.0      -1   99.0      201.0   86.9    7.4  145.9   -4.6   174.5
 05 JAN 16  16:03:00:00      -1   -1.0      -1   99.0      201.0   87.0    7.4  145.9   -4.6   174.0
 05 JAN 16  16:04:00:00      -1   -1.0      -1   99.0      201.0   87.1    7.4  145.9   -4.7   173.4
 05 JAN 16  16:05:00:00      -1   -1.0      -1   99.0      201.0   87.2    7.4  145.9   -4.7   172.9
 05 JAN 16  16:06:00:00     561    1.7      46   -2.5      201.1   87.3    7.3  145.9   -4.7   172.3
 05 JAN 16  16:07:00:00     546    2.0      47   -3.3      201.1   87.3    7.3  145.9   -4.7   171.8
 05 JAN 16  16:08:00:00     545    1.9      50   -2.7      201.1   87.4    7.3  145.9   -4.7   171.2
 05 JAN 16  16:09:00:00     546    2.9      47   -1.0      201.1   87.5    7.3  145.9   -4.7   170.7
 05 JAN 16  16:10:00:00     548    4.7      47   -0.2      201.2   87.6    7.2  145.9   -4.7   170.1
 05 JAN 16  16:11:00:00     558    5.2      44   -3.7      201.2   87.7    7.2  145.9   -4.7   169.6
 05 JAN 16  16:12:00:00     561   12.1      35   -3.6      201.2   87.8    7.2  145.9   -4.7   169.0
 05 JAN 16  16:13:00:00     567   10.2      37   -4.8      201.2   87.9    7.2  145.9   -4.7   168.5
 05 JAN 16  16:14:00:00     565    8.0      36   -2.9      201.3   87.9    7.1  145.9   -4.7   167.9
 05 JAN 16  16:15:00:00     564    5.7      34   -4.2      201.3   88.0    7.1  145.9   -4.7   167.4
 05 JAN 16  16:16:00:00     565    6.4      37   -3.3      201.3   88.1    7.1  145.9   -4.7   166.8
 05 JAN 16  16:17:00:00     593    3.1      49   -3.1      201.3   88.2    7.1  145.9   -4.7   166.3
 05 JAN 16  16:18:00:00     608    2.4      54   -3.1      201.4   88.3    7.0  145.9   -4.7   165.7
 05 JAN 16  16:19:00:00     585    3.9      44   -3.6      201.4   88.4    7.0  145.9   -4.7   165.2
 05 JAN 16  16:20:00:00     614    4.8      50   -1.9      201.4   88.4    7.0  145.9   -4.7   164.6
 05 JAN 16  16:21:00:00     576    3.7      47   -0.6      201.4   88.5    7.0  145.9   -4.7   164.1
 05 JAN 16  16:22:00:00     581    4.1      53   -1.4      201.5   88.6    6.9  145.9   -4.7   163.5
 05 JAN 16  16:23:00:00     567    3.2      53   -2.3      201.5   88.7    6.9  145.9   -4.7   163.0
 05 JAN 17  17:00:00:00     558    3.2      57   -1.8      201.5   88.8    6.9  145.9   -4.7   162.4
 05 JAN 17  17:01:00:00     567    2.6      62   -1.6      201.5   88.9    6.9  145.9   -4.7   161.9
 05 JAN 17  17:02:00:00     566    3.0      54    0.9      201.6   88.9    6.8  145.9   -4.7   161.3
 05 JAN 17  17:03:00:00     551    2.3      52   -1.9      201.6   89.0    6.8  145.9   -4.7   160.8
 05 JAN 17  17:04:00:00     565    1.5      54   -2.7      201.6   89.1    6.8  145.9   -4.8   160.2
 05 JAN 17  17:05:00:00     547    1.6      49   -3.0      201.6   89.2    6.8  145.9   -4.8   159.7
 05 JAN 17  17:06:00:00     547    2.0      49   -2.0      201.7   89.3    6.7  145.9   -4.8   159.1
 05 JAN 17  17:07:00:00     565    6.5      47   -2.9      201.7   89.3    6.7  145.9   -4.8   158.6
 05 JAN 17  17:08:00:00     615   10.1      54   -2.6      201.7   89.4    6.7  145.9   -4.8   158.0
 05 JAN 17  17:09:00:00     647    7.7      57   -4.5      201.7   89.5    6.7  145.9   -4.8   157.5
 05 JAN 17  17:10:00:00     670    7.4      63   -5.8      201.8   89.6    6.6  145.9   -4.8   156.9
 05 JAN 17  17:11:00:00     697   13.3      67   -2.4      201.8   89.7    6.6  145.9   -4.8   156.4
 05 JAN 17  17:12:00:00     750   14.2      65    0.0      201.8   89.7    6.6  145.9   -4.8   155.8
 05 JAN 17  17:13:00:00     804   26.5      61    5.3      201.8   89.8    6.6  145.9   -4.8   155.3
 05 JAN 17  17:14:00:00     773   50.6      56    8.3      201.9   89.9    6.5  145.9   -4.8   154.7
 05 JAN 17  17:15:00:00     728   44.9      55    7.0      201.9   90.0    6.5  145.9   -4.8   154.2
 05 JAN 17  17:16:00:00     689   36.3      56    6.8      201.9   90.0    6.5  145.9   -4.8   153.6
 05 JAN 17  17:17:00:00     665   33.9      57    7.3      201.9   90.1    6.5  145.9   -4.8   153.1
 05 JAN 17  17:18:00:00     670   28.3      56    7.2      202.0   90.2    6.4  145.9   -4.8   152.5
 05 JAN 17  17:19:00:00     648   28.3      54    6.4      202.0   90.3    6.4  145.9   -4.8   152.0
 05 JAN 17  17:20:00:00     622   25.3      52    6.4      202.0   90.4    6.4  145.9   -4.8   151.4
 05 JAN 17  17:21:00:00     610   22.3      52    7.3      202.0   90.4    6.4  145.9   -4.8   150.9
 05 JAN 17  17:22:00:00     606   20.5      53    6.1      202.1   90.5    6.3  145.9   -4.8   150.3
 05 JAN 17  17:23:00:00     568    5.9      51    4.2      202.1   90.6    6.3  145.9   -4.8   149.8
 05 JAN 18  18:00:00:00     560   10.9      45    5.5      202.1   90.7    6.3  145.9   -4.8   149.2
 05 JAN 18  18:01:00:00     552   20.6      41    5.2      202.2   90.7    6.3  145.9   -4.8   148.7
 05 JAN 18  18:02:00:00     564    7.6      48    0.3      202.2   90.8    6.2  145.9   -4.8   148.1
 05 JAN 18  18:03:00:00     542    2.1      56    1.7      202.2   90.9    6.2  145.9   -4.8   147.6
 05 JAN 18  18:04:00:00     537    1.6      69   -0.1      202.2   91.0    6.2  145.9   -4.8   147.0
 05 JAN 18  18:05:00:00     647    0.5      94    1.7      202.3   91.0    6.2  145.9   -4.9   146.5
 05 JAN 18  18:06:00:00     669    0.1     118    0.3      202.3   91.1    6.1  145.9   -4.9   145.9
 05 JAN 18  18:07:00:00     765    0.1     131    1.8      202.3   91.2    6.1  145.9   -4.9   145.4
 05 JAN 18  18:08:00:00     845    0.3     123    3.1      202.3   91.2    6.1  145.9   -4.9   144.8
 05 JAN 18  18:09:00:00     821    0.2     132    3.2      202.4   91.3    6.0  145.9   -4.9   144.3
 05 JAN 18  18:10:00:00     613    0.1     108    1.4      202.4   91.4    6.0  145.9   -4.9   143.7
 05 JAN 18  18:11:00:00     579    0.1     102    1.1      202.4   91.5    6.0  145.9   -4.9   143.2
 05 JAN 18  18:12:00:00     733    0.1     127    0.5      202.5   91.5    6.0  145.9   -4.9   142.6
 05 JAN 18  18:13:00:00     810    0.2     115    1.7      202.5   91.6    5.9  145.9   -4.9   142.1
 05 JAN 18  18:14:00:00     783    2.3      82    5.0      202.5   91.7    5.9  145.9   -4.9   141.5
 05 JAN 18  18:15:00:00     800    2.1      81    6.9      202.5   91.8    5.9  145.9   -4.9   141.0
 05 JAN 18  18:16:00:00     769    1.9      79    6.9      202.6   91.8    5.9  145.9   -4.9   140.4
 05 JAN 18  18:17:00:00     718    4.4      67    6.8      202.6   91.9    5.8  145.9   -4.9   139.9
 05 JAN 18  18:18:00:00     697    7.6      63    4.7      202.6   92.0    5.8  145.9   -4.9   139.3
 05 JAN 18  18:19:00:00     766    8.2      58    2.8      202.6   92.0    5.8  145.9   -4.9   138.8
 05 JAN 18  18:20:00:00     809    4.1      66   -0.6      202.7   92.1    5.8  145.9   -4.9   138.2
 05 JAN 18  18:21:00:00     941    2.1      73    1.3      202.7   92.2    5.7  145.9   -4.9   137.7
 05 JAN 18  18:22:00:00     915    2.2      68   -0.8      202.7   92.2    5.7  145.9   -4.9   137.1
 05 JAN 18  18:23:00:00     975    2.0      56   -0.5      202.8   92.3    5.7  145.9   -4.9   136.6
 05 JAN 19  19:00:00:00     984    1.9      55   -1.2      202.8   92.4    5.7  145.9   -4.9   136.0
 05 JAN 19  19:01:00:00    1001    2.6      33   -1.4      202.8   92.5    5.6  145.9   -4.9   135.5
 05 JAN 19  19:02:00:00    1005    4.1      25   -2.3      202.8   92.5    5.6  145.9   -4.9   134.9
 05 JAN 19  19:03:00:00    1005    4.2      21   -4.0      202.9   92.6    5.6  145.9   -4.9   134.4
 05 JAN 19  19:04:00:00    1005    3.5      28   -3.8      202.9   92.7    5.6  145.9   -4.9   133.8
 05 JAN 19  19:05:00:00    1002    2.3      33   -3.0      202.9   92.7    5.5  145.9   -4.9   133.3
 05 JAN 19  19:06:00:00     987    1.6      42   -2.6      203.0   92.8    5.5  145.9   -5.0   132.7
 05 JAN 19  19:07:00:00     977    1.3      58   -0.6      203.0   92.9    5.5  145.9   -5.0   132.2
 05 JAN 19  19:08:00:00     956    0.9      67   -0.5      203.0   92.9    5.5  145.9   -5.0   131.6
 05 JAN 19  19:09:00:00     921    0.7      74   -2.3      203.1   93.0    5.4  145.9   -5.0   131.1
 05 JAN 19  19:10:00:00     906    0.5      75   -2.7      203.1   93.1    5.4  145.9   -5.0   130.5
 05 JAN 19  19:11:00:00     875    0.4      77   -3.1      203.1   93.1    5.4  145.9   -5.0   130.0
 05 JAN 19  19:12:00:00     832    0.5      73   -4.1      203.1   93.2    5.3  145.9   -5.0   129.4
 05 JAN 19  19:13:00:00     764    0.7      56   -1.5      203.2   93.3    5.3  145.9   -5.0   128.9
 05 JAN 19  19:14:00:00     740    1.6      40   -2.2      203.2   93.3    5.3  145.9   -5.0   128.3
 05 JAN 19  19:15:00:00     756    1.0      50   -1.7      203.2   93.4    5.3  145.9   -5.0   127.8
 05 JAN 19  19:16:00:00     768    0.9      55   -1.6      203.3   93.5    5.2  145.9   -5.0   127.2
 05 JAN 19  19:17:00:00     835    0.7      64   -1.3      203.3   93.5    5.2  145.9   -5.0   126.7
 05 JAN 19  19:18:00:00     817    0.9      58   -1.1      203.3   93.6    5.2  145.9   -5.0   126.1
 05 JAN 19  19:19:00:00     786    0.7      61   -0.7      203.4   93.6    5.2  145.9   -5.0   125.6
 05 JAN 19  19:20:00:00     841    0.7      68   -1.5      203.4   93.7    5.1  145.9   -5.0   125.0
 05 JAN 19  19:21:00:00     844    0.7      65   -2.5      203.4   93.8    5.1  145.9   -5.0   124.5
 05 JAN 19  19:22:00:00     840    0.6      70   -1.7      203.4   93.8    5.1  145.9   -5.0   123.9
 05 JAN 19  19:23:00:00     843    0.6      76   -1.7      203.5   93.9    5.1  145.9   -5.0   123.4
 05 JAN 20  20:00:00:00     712    0.5      68   -4.8      203.5   94.0    5.0  145.9   -5.0   122.8
 05 JAN 20  20:01:00:00     628    0.8      58   -5.0      203.5   94.0    5.0  145.9   -5.0   122.3
 05 JAN 20  20:02:00:00     775    0.4      70   -3.4      203.6   94.1    5.0  145.9   -5.0   121.7
 05 JAN 20  20:03:00:00     910    0.4      80   -4.4      203.6   94.1    5.0  145.9   -5.0   121.2
 05 JAN 20  20:04:00:00     943    0.3      78   -1.0      203.6   94.2    4.9  145.9   -5.0   120.6
 05 JAN 20  20:05:00:00     884    0.3      78    3.4      203.7   94.3    4.9  145.9   -5.0   120.1
 05 JAN 20  20:06:00:00     901    0.4      82    3.9      203.7   94.3    4.9  145.9   -5.0   119.5
 05 JAN 20  20:07:00:00     626    0.9     111    2.0      203.7   94.4    4.8  145.9   -5.0   119.0
 05 JAN 20  20:08:00:00     708    0.6     122    2.3      203.8   94.4    4.8  145.9   -5.1   118.4
 05 JAN 20  20:09:00:00     928    0.9     131   -0.5      203.8   94.5    4.8  145.9   -5.1   117.9
 05 JAN 20  20:10:00:00     968    1.0     119   -1.0      203.8   94.6    4.8  145.9   -5.1   117.3
 05 JAN 20  20:11:00:00     845    0.3     136    2.0      203.9   94.6    4.7  145.9   -5.1   116.8
 05 JAN 20  20:12:00:00     990    1.8      92   -1.0      203.9   94.7    4.7  145.9   -5.1   116.2
 05 JAN 20  20:13:00:00     972    1.1     107   -1.9      203.9   94.7    4.7  145.9   -5.1   115.7
 05 JAN 20  20:14:00:00     922    0.9     112   -1.9      204.0   94.8    4.7  145.9   -5.1   115.1
 05 JAN 20  20:15:00:00     784    5.4      55   -2.1      204.0   94.9    4.6  145.9   -5.1   114.6
 05 JAN 20  20:16:00:00     746    3.9      48   -1.7      204.0   94.9    4.6  145.9   -5.1   114.0
 05 JAN 20  20:17:00:00     750    2.1      54   -1.7      204.0   95.0    4.6  145.9   -5.1   113.5
 05 JAN 20  20:18:00:00     723    1.2      61   -1.5      204.1   95.0    4.6  145.9   -5.1   112.9
 05 JAN 20  20:19:00:00     698    1.2      64   -1.2      204.1   95.1    4.5  145.9   -5.1   112.4
 05 JAN 20  20:20:00:00     631    1.5      56   -0.6      204.1   95.2    4.5  145.9   -5.1   111.8
 05 JAN 20  20:21:00:00     587    1.9      46   -0.7      204.2   95.2    4.5  145.9   -5.1   111.3
 05 JAN 20  20:22:00:00     571    1.9      41   -1.9      204.2   95.3    4.5  145.9   -5.1   110.7
 05 JAN 20  20:23:00:00     570    2.0      39   -1.0      204.2   95.3    4.4  145.9   -5.1   110.2
 05 JAN 21  21:00:00:00     570    2.1      39   -0.4      204.3   95.4    4.4  145.9   -5.1   109.6
 05 JAN 21  21:01:00:00     569    1.5      42   -0.4      204.3   95.4    4.4  145.9   -5.1   109.1
 05 JAN 21  21:02:00:00     567    1.5      44    0.1      204.3   95.5    4.3  145.9   -5.1   108.5
 05 JAN 21  21:03:00:00     568    2.1      40    1.3      204.4   95.5    4.3  145.9   -5.1   108.0
 05 JAN 21  21:04:00:00     565    2.2      38    1.1      204.4   95.6    4.3  145.9   -5.1   107.4
 05 JAN 21  21:05:00:00     567    2.3      38    0.9      204.4   95.7    4.3  145.9   -5.1   106.9
 05 JAN 21  21:06:00:00     563    2.4      36    1.0      204.5   95.7    4.2  145.9   -5.1   106.3
 05 JAN 21  21:07:00:00     563    2.4      36    0.7      204.5   95.8    4.2  145.9   -5.1   105.8
 05 JAN 21  21:08:00:00     564    2.1      38    0.1      204.5   95.8    4.2  145.9   -5.1   105.2
 05 JAN 21  21:09:00:00     563    2.4      38   -0.2      204.6   95.9    4.2  145.9   -5.1   104.7
 05 JAN 21  21:10:00:00     561    2.9      36    2.8      204.6   95.9    4.1  145.9   -5.2   104.1
 05 JAN 21  21:11:00:00     563    2.5      39    0.8      204.6   96.0    4.1  145.9   -5.2   103.6
 05 JAN 21  21:12:00:00     560    2.5      38    1.1      204.7   96.0    4.1  145.9   -5.2   103.0
 05 JAN 21  21:13:00:00     559    2.4      40    0.8      204.7   96.1    4.1  145.9   -5.2   102.5
 05 JAN 21  21:14:00:00     556    2.5      38    0.6      204.8   96.1    4.0  145.9   -5.2   101.9
 05 JAN 21  21:15:00:00     557    2.4      38    1.0      204.8   96.2    4.0  145.9   -5.2   101.4
 05 JAN 21  21:16:00:00     635    7.0      47    1.9      204.8   96.2    4.0  145.9   -5.2   100.8
 05 JAN 21  21:17:00:00     902   20.8      65    4.7      204.9   96.3    3.9  145.9   -5.2   100.3
 05 JAN 21  21:18:00:00     989   29.1      24    0.5      204.9   96.3    3.9  145.9   -5.2    99.7
 05 JAN 21  21:19:00:00    1004   31.1       9   -0.8      204.9   96.4    3.9  145.9   -5.2    99.2
 05 JAN 21  21:20:00:00    1004   24.6      10    0.6      205.0   96.5    3.9  145.9   -5.2    98.6
 05 JAN 21  21:21:00:00    1004   18.7      11    0.9      205.0   96.5    3.8  145.9   -5.2    98.1
 05 JAN 21  21:22:00:00     997   21.9      20   -1.4      205.0   96.6    3.8  145.9   -5.2    97.5
 05 JAN 21  21:23:00:00     970   18.0      43    0.9      205.1   96.6    3.8  145.9   -5.2    97.0
 05 JAN 22  22:00:00:00     991   16.6      28    3.9      205.1   96.7    3.8  145.9   -5.2    96.4
 05 JAN 22  22:01:00:00     988   12.7      30    1.9      205.1   96.7    3.7  145.9   -5.2    95.9
 05 JAN 22  22:02:00:00     991   12.1      29    1.1      205.2   96.8    3.7  145.9   -5.2    95.3
 05 JAN 22  22:03:00:00     970    4.5      49    1.2      205.2   96.8    3.7  145.9   -5.2    94.8
 05 JAN 22  22:04:00:00     980    2.2      65   -0.8      205.2   96.9    3.6  145.9   -5.2    94.2
 05 JAN 22  22:05:00:00     928    1.0      78   -1.7      205.3   96.9    3.6  145.9   -5.2    93.7
 05 JAN 22  22:06:00:00     963    0.9      64   -1.3      205.3   96.9    3.6  145.9   -5.2    93.1
 05 JAN 22  22:07:00:00     930    0.9      66   -1.8      205.4   97.0    3.6  145.9   -5.2    92.6
 05 JAN 22  22:08:00:00     799    1.3      55   -1.8      205.4   97.0    3.5  145.9   -5.2    92.0
 05 JAN 22  22:09:00:00     746    2.1      40   -1.6      205.4   97.1    3.5  145.9   -5.2    91.5
 05 JAN 22  22:10:00:00     740    1.8      39   -2.2      205.5   97.1    3.5  145.9   -5.2    90.9
 05 JAN 22  22:11:00:00     746    1.5      42   -1.6      205.5   97.2    3.5  145.9   -5.2    90.4
 05 JAN 22  22:12:00:00     749    1.7      41   -0.6      205.5   97.2    3.4  145.9   -5.3    89.8
 05 JAN 22  22:13:00:00     744    2.0      37   -1.4      205.6   97.3    3.4  145.9   -5.3    89.3
 05 JAN 22  22:14:00:00     751    1.5      41   -1.6      205.6   97.3    3.4  145.9   -5.3    88.7
 05 JAN 22  22:15:00:00     759    1.2      46   -2.1      205.7   97.4    3.3  145.9   -5.3    88.2
 05 JAN 22  22:16:00:00     773    1.1      53   -2.4      205.7   97.4    3.3  145.9   -5.3    87.6
 05 JAN 22  22:17:00:00     758    0.8      51   -3.1      205.7   97.5    3.3  145.9   -5.3    87.1
 05 JAN 22  22:18:00:00     756    0.5      55   -0.8      205.8   97.5    3.3  145.9   -5.3    86.5
 05 JAN 22  22:19:00:00     761    0.8      55   -0.8      205.8   97.6    3.2  145.9   -5.3    86.0
 05 JAN 22  22:20:00:00     753    1.1      52   -0.8      205.8   97.6    3.2  145.9   -5.3    85.4
 05 JAN 22  22:21:00:00     746    1.3      51    0.0      205.9   97.6    3.2  145.9   -5.3    84.9
 05 JAN 22  22:22:00:00     715    1.3      53   -1.8      205.9   97.7    3.2  145.9   -5.3    84.3
 05 JAN 22  22:23:00:00     721    1.4      57   -1.3      206.0   97.7    3.1  145.9   -5.3    83.8
 05 JAN 23  23:00:00:00     735    1.1      58   -2.1      206.0   97.8    3.1  145.9   -5.3    83.2
 05 JAN 23  23:01:00:00     734    1.0      60   -0.4      206.0   97.8    3.1  145.9   -5.3    82.7
 05 JAN 23  23:02:00:00     710    0.9      63   -0.9      206.1   97.9    3.0  145.9   -5.3    82.1
 05 JAN 23  23:03:00:00     698    1.1      59   -1.2      206.1   97.9    3.0  145.9   -5.3    81.6
 05 JAN 23  23:04:00:00     702    1.4      57   -0.7      206.1   98.0    3.0  145.9   -5.3    81.0
 05 JAN 23  23:05:00:00     697    1.4      59    0.2      206.2   98.0    3.0  145.9   -5.3    80.5
 05 JAN 23  23:06:00:00     654    1.5      54   -0.7      206.2   98.0    2.9  145.9   -5.3    79.9
 05 JAN 23  23:07:00:00     704    1.5      55   -3.4      206.3   98.1    2.9  145.9   -5.3    79.4
 05 JAN 23  23:08:00:00     684    1.5      55   -2.6      206.3   98.1    2.9  145.9   -5.3    78.8
 05 JAN 23  23:09:00:00     699    1.6      55   -0.6      206.3   98.2    2.9  145.9   -5.3    78.3
 05 JAN 23  23:10:00:00     682    1.5      54   -0.1      206.4   98.2    2.8  145.9   -5.3    77.7
 05 JAN 23  23:11:00:00     676    1.8      57   -1.0      206.4   98.2    2.8  145.9   -5.3    77.2
 05 JAN 23  23:12:00:00     712    1.9      58    0.1      206.5   98.3    2.8  145.9   -5.3    76.6
 05 JAN 23  23:13:00:00     716    1.9      53    1.1      206.5   98.3    2.7  145.9   -5.3    76.1
 05 JAN 23  23:14:00:00     704    1.8      52    2.4      206.5   98.4    2.7  145.9   -5.3    75.5
 05 JAN 23  23:15:00:00     685    1.6      54    1.2      206.6   98.4    2.7  145.9   -5.4    75.0
 05 JAN 23  23:16:00:00     693    1.5      56    0.2      206.6   98.5    2.7  145.9   -5.4    74.4
 05 JAN 23  23:17:00:00     666    1.5      55    0.7      206.7   98.5    2.6  145.9   -5.4    73.9
 05 JAN 23  23:18:00:00     656    1.5      54    0.1      206.7   98.5    2.6  145.9   -5.4    73.3
 05 JAN 23  23:19:00:00     659    1.8      53   -0.4      206.7   98.6    2.6  145.9   -5.4    72.8
 05 JAN 23  23:20:00:00     614    1.9      51    1.1      206.8   98.6    2.6  145.9   -5.4    72.2
 05 JAN 23  23:21:00:00     670    1.5      57   -0.2      206.8   98.6    2.5  145.9   -5.4    71.7
 05 JAN 23  23:22:00:00     622    1.8      52   -0.6      206.9   98.7    2.5  145.9   -5.4    71.1
 05 JAN 23  23:23:00:00     585    1.8      43   -2.1      206.9   98.7    2.5  145.9   -5.4    70.6
 05 JAN 24  24:00:00:00     569    1.9      37   -1.4      206.9   98.8    2.4  145.9   -5.4    70.0
 05 JAN 24  24:01:00:00     565    1.8      35   -1.2      207.0   98.8    2.4  145.9   -5.4    69.5
 05 JAN 24  24:02:00:00     573    1.7      39   -1.9      207.0   98.8    2.4  145.9   -5.4    68.9
 05 JAN 24  24:03:00:00     562    1.6      35    0.2      207.1   98.9    2.4  145.9   -5.4    68.4
 05 JAN 24  24:04:00:00     571    1.6      40   -0.8      207.1   98.9    2.3  145.9   -5.4    67.8
 05 JAN 24  24:05:00:00     572    1.9      39   -0.9      207.1   98.9    2.3  145.9   -5.4    67.3
 05 JAN 24  24:06:00:00     575    1.9      39    1.3      207.2   99.0    2.3  145.9   -5.4    66.7
 05 JAN 24  24:07:00:00     580    1.6      41    0.8      207.2   99.0    2.3  145.9   -5.4    66.2
 05 JAN 24  24:08:00:00     602    1.3      47    0.6      207.3   99.1    2.2  145.9   -5.4    65.6
 05 JAN 24  24:09:00:00     585    1.8      44    0.0      207.3   99.1    2.2  145.9   -5.4    65.1
 05 JAN 24  24:10:00:00     569    2.1      38    0.5      207.4   99.1    2.2  145.9   -5.4    64.5
 05 JAN 24  24:11:00:00     563    2.3      35    0.3      207.4   99.2    2.1  145.9   -5.4    64.0
 05 JAN 24  24:12:00:00     559    2.0      34   -0.9      207.4   99.2    2.1  145.9   -5.4    63.4
 05 JAN 24  24:13:00:00     551    2.0      32   -1.9      207.5   99.2    2.1  145.9   -5.4    62.9
 05 JAN 24  24:14:00:00     553    1.4      39   -2.9      207.5   99.3    2.1  145.9   -5.4    62.3
 05 JAN 24  24:15:00:00     555    1.5      32   -0.8      207.6   99.3    2.0  145.9   -5.4    61.8
 05 JAN 24  24:16:00:00     564    1.9      36   -1.7      207.6   99.3    2.0  145.9   -5.4    61.2
 05 JAN 24  24:17:00:00     563    1.9      38   -1.8      207.6   99.4    2.0  145.9   -5.4    60.7
 05 JAN 24  24:18:00:00     559    1.4      40   -1.2      207.7   99.4    1.9  145.9   -5.5    60.1
 05 JAN 24  24:19:00:00     558    1.5      40   -1.8      207.7   99.4    1.9  145.9   -5.5    59.6
 05 JAN 24  24:20:00:00     558    1.4      42   -0.9      207.8   99.5    1.9  145.9   -5.5    59.0
 05 JAN 24  24:21:00:00     555    1.4      37   -1.7      207.8   99.5    1.9  145.9   -5.5    58.5
 05 JAN 24  24:22:00:00     555    1.4      36   -1.3      207.9   99.5    1.8  145.9   -5.5    57.9
 05 JAN 24  24:23:00:00     553    1.2      39   -0.8      207.9   99.6    1.8  145.9   -5.5    57.4
 05 JAN 25  25:00:00:00     539    0.9      45   -1.3      207.9   99.6    1.8  145.9   -5.5    56.8
 05 JAN 25  25:01:00:00     525    0.9      45   -2.7      208.0   99.6    1.8  145.9   -5.5    56.3
 05 JAN 25  25:02:00:00     492    1.2      40   -2.5      208.0   99.7    1.7  146.0   -5.5    55.7
 05 JAN 25  25:03:00:00     484    1.4      38   -3.3      208.1   99.7    1.7  146.0   -5.5    55.2
 05 JAN 25  25:04:00:00     484    1.6      37   -4.2      208.1   99.7    1.7  146.0   -5.5    54.6
 05 JAN 25  25:05:00:00     469    2.0      34   -2.4      208.2   99.8    1.6  146.0   -5.5    54.1
 05 JAN 25  25:06:00:00     471    2.0      35   -1.5      208.2   99.8    1.6  146.0   -5.5    53.5
 05 JAN 25  25:07:00:00     467    2.2      33   -1.7      208.3   99.8    1.6  146.0   -5.5    53.0
 05 JAN 25  25:08:00:00     465    2.3      32   -0.8      208.3   99.9    1.6  146.0   -5.5    52.4
 05 JAN 25  25:09:00:00     461    2.9      30   -1.1      208.3   99.9    1.5  146.0   -5.5    51.9
 05 JAN 25  25:10:00:00     464    2.7      32   -1.0      208.4   99.9    1.5  146.0   -5.5    51.3
 05 JAN 25  25:11:00:00     456    3.0      27   -1.0      208.4  100.0    1.5  146.0   -5.5    50.8
 05 JAN 25  25:12:00:00     451    2.9      25   -0.3      208.5  100.0    1.4  146.0   -5.5    50.2
 05 JAN 25  25:13:00:00     448    2.9      23   -0.4      208.5  100.0    1.4  146.0   -5.5    49.7
 05 JAN 25  25:14:00:00     448    2.9      24   -0.9      208.6  100.0    1.4  146.0   -5.5    49.1
 05 JAN 25  25:15:00:00     448    2.3      27   -2.9      208.6  100.1    1.4  146.0   -5.5    48.6
 05 JAN 25  25:16:00:00     445    2.0      29   -3.0      208.7  100.1    1.3  146.0   -5.5    48.0
 05 JAN 25  25:17:00:00     437    2.3      32   -5.2      208.7  100.1    1.3  146.0   -5.5    47.5
 05 JAN 25  25:18:00:00     421    2.3      34   -5.7      208.7  100.2    1.3  146.0   -5.5    46.9
 05 JAN 25  25:19:00:00     411    1.7      35   -3.1      208.8  100.2    1.2  146.0   -5.5    46.4
 05 JAN 25  25:20:00:00     411    1.4      36   -1.3      208.8  100.2    1.2  146.0   -5.5    45.8
 05 JAN 25  25:21:00:00     400    1.8      33   -1.5      208.9  100.2    1.2  146.0   -5.5    45.3
 05 JAN 25  25:22:00:00     408    2.0      33   -2.4      208.9  100.3    1.2  146.0   -5.5    44.7
 05 JAN 25  25:23:00:00     411    1.9      34   -2.8      209.0  100.3    1.1  146.0   -5.6    44.2
 05 JAN 26  26:00:00:00     418    1.6      36   -3.0      209.0  100.3    1.1  146.0   -5.6    43.6
 05 JAN 26  26:01:00:00     421    1.6      37   -4.2      209.1  100.3    1.1  146.0   -5.6    43.1
 05 JAN 26  26:02:00:00     403    2.1      32   -3.9      209.1  100.4    1.1  146.0   -5.6    42.5
 05 JAN 26  26:03:00:00     401    2.6      31   -4.9      209.2  100.4    1.0  146.0   -5.6    42.0
 05 JAN 26  26:04:00:00     406    2.3      33   -4.9      209.2  100.4    1.0  146.0   -5.6    41.4
 05 JAN 26  26:05:00:00     384    3.1      26   -5.9      209.2  100.5    1.0  146.0   -5.6    40.9
 05 JAN 26  26:06:00:00     372    4.0      24   -5.6      209.3  100.5    0.9  146.0   -5.6    40.3
 05 JAN 26  26:07:00:00     367    3.2      23   -2.5      209.3  100.5    0.9  146.0   -5.6    39.8
 05 JAN 26  26:08:00:00     362    6.2      22   -6.6      209.4  100.5    0.9  146.0   -5.6    39.2
 05 JAN 26  26:09:00:00     364    3.5      22   -3.6      209.4  100.6    0.9  146.0   -5.6    38.7
 05 JAN 26  26:10:00:00     360    4.0      22   -4.3      209.5  100.6    0.8  146.0   -5.6    38.1
 05 JAN 26  26:11:00:00     353    3.8      20   -4.6      209.5  100.6    0.8  146.0   -5.6    37.6
 05 JAN 26  26:12:00:00     354    3.0      20   -3.5      209.6  100.6    0.8  146.0   -5.6    37.0
 05 JAN 26  26:13:00:00     353    3.0      20   -3.3      209.6  100.7    0.7  146.0   -5.6    36.5
 05 JAN 26  26:14:00:00     356    3.1      21   -3.5      209.7  100.7    0.7  146.0   -5.6    35.9
 05 JAN 26  26:15:00:00     356    2.6      21   -1.6      209.7  100.7    0.7  146.0   -5.6    35.4
 05 JAN 26  26:16:00:00     354    2.9      20   -1.8      209.8  100.7    0.7  146.0   -5.6    34.8
 05 JAN 26  26:17:00:00     350    3.2      19   -1.9      209.8  100.7    0.6  146.0   -5.6    34.3
 05 JAN 26  26:18:00:00     354    2.6      21   -2.4      209.9  100.8    0.6  146.0   -5.6    33.7
 05 JAN 26  26:19:00:00     356    2.3      21   -2.3      209.9  100.8    0.6  146.0   -5.6    33.2
 05 JAN 26  26:20:00:00     355    2.5      21   -3.0      210.0  100.8    0.5  146.0   -5.6    32.6
 05 JAN 26  26:21:00:00     355    2.4      21   -2.5      210.0  100.8    0.5  146.0   -5.6    32.1
 05 JAN 26  26:22:00:00     355    2.3      21   -1.9      210.1  100.9    0.5  146.0   -5.6    31.5
 05 JAN 26  26:23:00:00     356    2.3      22   -2.2      210.1  100.9    0.5  146.0   -5.6    31.0
 05 JAN 27  27:00:00:00     353    2.2      22   -2.7      210.1  100.9    0.4  146.0   -5.6    30.4
 05 JAN 27  27:01:00:00     347    2.2      23   -3.2      210.2  100.9    0.4  146.0   -5.6    29.9
 05 JAN 27  27:02:00:00     350    1.8      24   -2.6      210.2  100.9    0.4  146.0   -5.6    29.3
 05 JAN 27  27:03:00:00     348    1.5      24   -1.7      210.3  101.0    0.4  146.0   -5.7    28.8
 05 JAN 27  27:04:00:00     341    1.8      23   -2.1      210.3  101.0    0.3  146.0   -5.7    28.2
 05 JAN 27  27:05:00:00     338    1.9      23   -2.2      210.4  101.0    0.3  146.0   -5.7    27.7
 05 JAN 27  27:06:00:00     338    2.0      23   -1.2      210.4  101.0    0.3  146.0   -5.7    27.1
 05 JAN 27  27:07:00:00     336    2.1      22   -1.6      210.5  101.1    0.2  146.0   -5.7    26.6
 05 JAN 27  27:08:00:00     335    2.1      22   -1.3      210.5  101.1    0.2  146.0   -5.7    26.0
 05 JAN 27  27:09:00:00     337    2.5      21   -1.2      210.6  101.1    0.2  146.0   -5.7    25.5
 05 JAN 27  27:10:00:00     341    2.6      21   -0.2      210.6  101.1    0.2  146.0   -5.7    24.9
 05 JAN 27  27:11:00:00     351    2.4      22   -1.5      210.7  101.1    0.1  146.0   -5.7    24.4
 05 JAN 27  27:12:00:00     349    2.6      23   -1.1      210.7  101.2    0.1  146.0   -5.7    23.8
 05 JAN 27  27:13:00:00     350    2.8      24   -0.3      210.8  101.2    0.1  146.0   -5.7    23.3
 05 JAN 27  27:14:00:00     347    2.6      24   -0.5      210.8  101.2    0.0  146.0   -5.7    22.7
 05 JAN 27  27:15:00:00     344    3.1      23   -0.4      210.9  101.2    0.0  146.0   -5.7    22.2
 05 JAN 27  27:16:00:00     344    4.9      22    0.8      210.9  101.2    0.0  146.0   -5.7    21.6
 05 JAN 27  27:17:00:00     346   13.2      21    3.3      211.0  101.2    0.0  146.0   -5.7    21.1
 05 JAN 27  27:18:00:00     342   13.1      22    3.0      211.0  101.3   -0.1  146.0   -5.7    20.5
 05 JAN 27  27:19:00:00     340   12.9      21    3.0      211.1  101.3   -0.1  146.0   -5.7    20.0
 05 JAN 27  27:20:00:00     342   14.3      21    3.8      211.1  101.3   -0.1  146.0   -5.7    19.4
 05 JAN 27  27:21:00:00     338   10.5      23    1.7      211.2  101.3   -0.2  146.0   -5.7    18.9
 05 JAN 27  27:22:00:00     338   13.4      23    3.4      211.2  101.3   -0.2  146.0   -5.7    18.3
 05 JAN 27  27:23:00:00     347    6.2      22    3.5      211.3  101.3   -0.2  146.0   -5.7    17.8
 05 JAN 28  28:00:00:00     353    7.4      23    5.1      211.3  101.4   -0.2  146.0   -5.7    17.2
 05 JAN 28  28:01:00:00     399    5.3      31    1.4      211.4  101.4   -0.3  146.0   -5.7    16.7
 05 JAN 28  28:02:00:00     378    6.7      25    3.1      211.4  101.4   -0.3  146.0   -5.7    16.1
 05 JAN 28  28:03:00:00     365    6.6      23    1.6      211.5  101.4   -0.3  146.0   -5.7    15.6
 05 JAN 28  28:04:00:00     360    6.3      22   -0.8      211.5  101.4   -0.4  146.0   -5.7    15.0
 05 JAN 28  28:05:00:00     357    6.2      22   -1.8      211.6  101.4   -0.4  146.0   -5.7    14.5
 05 JAN 28  28:06:00:00     359    6.7      22   -2.0      211.6  101.5   -0.4  146.0   -5.7    13.9
 05 JAN 28  28:07:00:00     374    5.9      25   -0.2      211.7  101.5   -0.4  146.0   -5.7    13.4
 05 JAN 28  28:08:00:00     403    4.8      32    1.2      211.7  101.5   -0.5  146.0   -5.7    12.8
 05 JAN 28  28:09:00:00     417    4.1      37   -1.1      211.8  101.5   -0.5  146.0   -5.8    12.3
 05 JAN 28  28:10:00:00     403    5.1      34    0.2      211.8  101.5   -0.5  146.0   -5.8    11.7
 05 JAN 28  28:11:00:00     395    5.9      32    0.1      211.9  101.5   -0.6  146.0   -5.8    11.2
 05 JAN 28  28:12:00:00     389    6.5      31   -1.5      212.0  101.6   -0.6  146.0   -5.8    10.6
 05 JAN 28  28:13:00:00     424    4.6      38   -5.0      212.0  101.6   -0.6  146.0   -5.8    10.1
 05 JAN 28  28:14:00:00     420    4.8      37   -3.5      212.1  101.6   -0.6  146.0   -5.8     9.5
 05 JAN 28  28:15:00:00     415    5.0      35   -2.7      212.1  101.6   -0.7  146.0   -5.8     9.0
 05 JAN 28  28:16:00:00     412    5.1      35   -2.0      212.2  101.6   -0.7  146.0   -5.8     8.4
 05 JAN 28  28:17:00:00     417    5.0      35   -2.9      212.2  101.6   -0.7  146.0   -5.8     7.9
 05 JAN 28  28:18:00:00     408    6.7      34   -3.6      212.3  101.6   -0.8  146.0   -5.8     7.3
 05 JAN 28  28:19:00:00     395   10.0      32   -3.2      212.3  101.6   -0.8  146.0   -5.8     6.8
 05 JAN 28  28:20:00:00     376   10.9      29   -4.1      212.4  101.7   -0.8  146.0   -5.8     6.2
 05 JAN 28  28:21:00:00     369   14.7      28   -4.3      212.4  101.7   -0.8  146.0   -5.8     5.7
 05 JAN 28  28:22:00:00     357   15.8      28   -1.8      212.5  101.7   -0.9  146.0   -5.8     5.1
 05 JAN 28  28:23:00:00     360   14.3      29   -2.5      212.5  101.7   -0.9  146.0   -5.8     4.6
 05 JAN 29  29:00:00:00     382   10.0      31   -3.1      212.6  101.7   -0.9  146.0   -5.8     4.0
 05 JAN 29  29:01:00:00     378   11.5      30   -4.0      212.6  101.7   -0.9  146.0   -5.8     3.5
 05 JAN 29  29:02:00:00     379   14.6      31   -6.6      212.7  101.7   -1.0  146.0   -5.8     2.9
 05 JAN 29  29:03:00:00     390   14.3      34   -8.0      212.7  101.7   -1.0  146.0   -5.8     2.4
 05 JAN 29  29:04:00:00     375   15.4      30   -6.5      212.8  101.8   -1.0  146.0   -5.8     1.8
 05 JAN 29  29:05:00:00     380   13.5      33   -6.2      212.8  101.8   -1.1  146.0   -5.8     1.3
 05 JAN 29  29:06:00:00     404   14.6      35   -7.4      212.9  101.8   -1.1  146.0   -5.8     0.7
 05 JAN 29  29:07:00:00     398   16.3      34   -8.1      213.0  101.8   -1.1  146.0   -5.8     0.2
 05 JAN 29  29:08:00:00     442   16.5      38   -7.6      213.0  101.8   -1.1  146.0   -5.8   359.6